sensor_id;sensor_type;location;lat;lon;timestamp;temperature;humidity
14022;DHT22;7086;48.116;11.580;2023-02-28T00:00:06;-0.30;76.10
14022;DHT22;7086;48.116;11.580;2023-02-28T00:02:40;-0.30;77.50
14022;DHT22;7086;48.116;11.580;2023-02-28T00:05:13;-0.30;76.60
14022;DHT22;7086;48.116;11.580;2023-02-28T00:07:42;-0.30;76.90
14022;DHT22;7086;48.116;11.580;2023-02-28T00:10:18;-0.30;76.10
14022;DHT22;7086;48.116;11.580;2023-02-28T00:12:54;0.50;76.80
14022;DHT22;7086;48.116;11.580;2023-02-28T00:15:27;-0.30;77.00
14022;DHT22;7086;48.116;11.580;2023-02-28T00:17:59;-0.30;76.30
14022;DHT22;7086;48.116;11.580;2023-02-28T00:20:30;-1.50;74.70
14022;DHT22;7086;48.116;11.580;2023-02-28T00:22:59;-0.40;76.00
14022;DHT22;7086;48.116;11.580;2023-02-28T00:25:27;-0.40;75.20
14022;DHT22;7086;48.116;11.580;2023-02-28T00:27:57;-0.40;76.30
14022;DHT22;7086;48.116;11.580;2023-02-28T00:30:25;-0.40;76.20
14022;DHT22;7086;48.116;11.580;2023-02-28T00:32:52;-0.40;76.70
14022;DHT22;7086;48.116;11.580;2023-02-28T00:35:19;2.30;78.60
14022;DHT22;7086;48.116;11.580;2023-02-28T00:37:49;-0.40;77.40
14022;DHT22;7086;48.116;11.580;2023-02-28T00:40:17;0.10;77.30
14022;DHT22;7086;48.116;11.580;2023-02-28T00:42:45;-0.40;77.00
14022;DHT22;7086;48.116;11.580;2023-02-28T00:45:12;-0.40;76.10
14022;DHT22;7086;48.116;11.580;2023-02-28T00:47:44;-1.10;76.30
14022;DHT22;7086;48.116;11.580;2023-02-28T00:50:16;-0.50;76.20
14022;DHT22;7086;48.116;11.580;2023-02-28T00:52:55;-0.50;77.20
14022;DHT22;7086;48.116;11.580;2023-02-28T00:55:25;-0.50;75.70
14022;DHT22;7086;48.116;11.580;2023-02-28T00:57:57;-0.50;76.20
14022;DHT22;7086;48.116;11.580;2023-02-28T01:00:25;0.50;77.20
14022;DHT22;7086;48.116;11.580;2023-02-28T01:02:53;1.40;79.00
14022;DHT22;7086;48.116;11.580;2023-02-28T01:05:21;-0.50;76.30
14022;DHT22;7086;48.116;11.580;2023-02-28T01:07:49;-1.10;76.20
14022;DHT22;7086;48.116;11.580;2023-02-28T01:10:19;-0.50;77.50
14022;DHT22;7086;48.116;11.580;2023-02-28T01:12:49;-0.60;76.40
14022;DHT22;7086;48.116;11.580;2023-02-28T01:15:16;-0.60;76.00
14022;DHT22;7086;48.116;11.580;2023-02-28T01:17:44;-0.60;76.90
14022;DHT22;7086;48.116;11.580;2023-02-28T01:20:12;-3.30;74.80
14022;DHT22;7086;48.116;11.580;2023-02-28T01:22:40;-0.60;77.60
14022;DHT22;7086;48.116;11.580;2023-02-28T01:25:08;-0.60;76.60
14022;DHT22;7086;48.116;11.580;2023-02-28T01:27:37;-0.60;76.40
14022;DHT22;7086;48.116;11.580;2023-02-28T01:30:06;1.80;78.80
14022;DHT22;7086;48.116;11.580;2023-02-28T01:32:35;-0.70;78.00
14022;DHT22;7086;48.116;11.580;2023-02-28T01:35:04;-0.70;77.50
14022;DHT22;7086;48.116;11.580;2023-02-28T01:37:32;-0.70;77.80
14022;DHT22;7086;48.116;11.580;2023-02-28T01:40:00;1.40;78.00
14022;DHT22;7086;48.116;11.580;2023-02-28T01:42:27;-0.70;77.80
14022;DHT22;7086;48.116;11.580;2023-02-28T01:45:00;-0.70;77.80
14022;DHT22;7086;48.116;11.580;2023-02-28T01:47:35;-0.80;78.20
14022;DHT22;7086;48.116;11.580;2023-02-28T01:50:08;-1.10;77.00
14022;DHT22;7086;48.116;11.580;2023-02-28T01:52:41;-0.80;78.20
14022;DHT22;7086;48.116;11.580;2023-02-28T01:55:13;1.60;78.60
14022;DHT22;7086;48.116;11.580;2023-02-28T01:57:48;-0.80;78.10
14022;DHT22;7086;48.116;11.580;2023-02-28T02:00:28;-0.80;78.00
14022;DHT22;7086;48.116;11.580;2023-02-28T02:03:04;0.50;77.70
14022;DHT22;7086;48.116;11.580;2023-02-28T02:05:37;0.20;79.20
14022;DHT22;7086;48.116;11.580;2023-02-28T02:08:08;1.60;79.50
14022;DHT22;7086;48.116;11.580;2023-02-28T02:10:41;-0.90;78.40
14022;DHT22;7086;48.116;11.580;2023-02-28T02:13:26;-3.00;77.40
14022;DHT22;7086;48.116;11.580;2023-02-28T02:16:34;-0.90;79.30
14022;DHT22;7086;48.116;11.580;2023-02-28T02:19:33;-0.90;79.20
14022;DHT22;7086;48.116;11.580;2023-02-28T02:25:55;-0.90;78.20
14022;DHT22;7086;48.116;11.580;2023-02-28T02:32:10;-0.90;79.40
14022;DHT22;7086;48.116;11.580;2023-02-28T02:35:00;-0.60;79.40
14022;DHT22;7086;48.116;11.580;2023-02-28T02:37:40;-1.00;79.30
14022;DHT22;7086;48.116;11.580;2023-02-28T02:40:17;-0.70;79.50
14022;DHT22;7086;48.116;11.580;2023-02-28T02:42:51;-1.00;78.70
14022;DHT22;7086;48.116;11.580;2023-02-28T02:45:25;-1.00;79.30
14022;DHT22;7086;48.116;11.580;2023-02-28T02:48:03;-1.00;79.30
14022;DHT22;7086;48.116;11.580;2023-02-28T02:50:39;-1.00;79.10
14022;DHT22;7086;48.116;11.580;2023-02-28T02:53:11;-1.00;79.50
14022;DHT22;7086;48.116;11.580;2023-02-28T02:55:44;-1.20;79.00
14022;DHT22;7086;48.116;11.580;2023-02-28T02:58:22;-1.10;79.00
14022;DHT22;7086;48.116;11.580;2023-02-28T03:00:55;0.10;80.00
14022;DHT22;7086;48.116;11.580;2023-02-28T03:03:27;-1.10;78.50
14022;DHT22;7086;48.116;11.580;2023-02-28T03:05:59;-1.10;78.80
14022;DHT22;7086;48.116;11.580;2023-02-28T03:08:29;1.10;80.30
14022;DHT22;7086;48.116;11.580;2023-02-28T03:11:03;1.30;80.10
14022;DHT22;7086;48.116;11.580;2023-02-28T03:13:47;-1.10;79.80
14022;DHT22;7086;48.116;11.580;2023-02-28T03:16:49;-0.90;80.10
14022;DHT22;7086;48.116;11.580;2023-02-28T03:19:47;-1.20;79.50
14022;DHT22;7086;48.116;11.580;2023-02-28T03:22:44;0.50;81.20
14022;DHT22;7086;48.116;11.580;2023-02-28T03:25:22;-1.20;80.50
14022;DHT22;7086;48.116;11.580;2023-02-28T03:28:03;-1.20;79.40
14022;DHT22;7086;48.116;11.580;2023-02-28T03:30:40;-0.60;80.60
14022;DHT22;7086;48.116;11.580;2023-02-28T03:33:15;-0.90;80.30
14022;DHT22;7086;48.116;11.580;2023-02-28T03:35:53;-1.30;79.70
14022;DHT22;7086;48.116;11.580;2023-02-28T03:38:28;1.70;81.80
14022;DHT22;7086;48.116;11.580;2023-02-28T03:41:04;-1.30;79.50
14022;DHT22;7086;48.116;11.580;2023-02-28T03:43:41;-1.20;80.30
14022;DHT22;7086;48.116;11.580;2023-02-28T03:46:16;-1.30;80.30
14022;DHT22;7086;48.116;11.580;2023-02-28T03:48:52;-0.10;81.30
14022;DHT22;7086;48.116;11.580;2023-02-28T03:51:24;0.30;81.60
14022;DHT22;7086;48.116;11.580;2023-02-28T03:53:57;-0.20;81.20
14022;DHT22;7086;48.116;11.580;2023-02-28T03:56:32;-1.30;80.10
14022;DHT22;7086;48.116;11.580;2023-02-28T03:59:09;-1.30;80.90
14022;DHT22;7086;48.116;11.580;2023-02-28T04:01:43;1.00;82.30
14022;DHT22;7086;48.116;11.580;2023-02-28T04:04:13;-1.30;80.90
14022;DHT22;7086;48.116;11.580;2023-02-28T04:06:42;0.20;82.00
14022;DHT22;7086;48.116;11.580;2023-02-28T04:09:13;-1.30;80.70
14022;DHT22;7086;48.116;11.580;2023-02-28T04:11:42;-1.30;80.90
14022;DHT22;7086;48.116;11.580;2023-02-28T04:14:12;-0.40;81.50
14022;DHT22;7086;48.116;11.580;2023-02-28T04:16:41;1.00;81.40
14022;DHT22;7086;48.116;11.580;2023-02-28T04:19:11;-1.30;81.10
14022;DHT22;7086;48.116;11.580;2023-02-28T04:21:41;-1.30;81.20
14022;DHT22;7086;48.116;11.580;2023-02-28T04:24:13;-1.40;80.90
14022;DHT22;7086;48.116;11.580;2023-02-28T04:26:43;0.10;82.70
14022;DHT22;7086;48.116;11.580;2023-02-28T04:29:13;-0.80;81.90
14022;DHT22;7086;48.116;11.580;2023-02-28T04:31:44;-1.20;81.10
14022;DHT22;7086;48.116;11.580;2023-02-28T04:34:11;-1.30;80.60
14022;DHT22;7086;48.116;11.580;2023-02-28T04:36:39;0.70;81.90
14022;DHT22;7086;48.116;11.580;2023-02-28T04:39:06;-0.80;81.30
14022;DHT22;7086;48.116;11.580;2023-02-28T04:41:36;-0.10;82.00
14022;DHT22;7086;48.116;11.580;2023-02-28T04:44:04;-1.20;81.30
14022;DHT22;7086;48.116;11.580;2023-02-28T04:46:32;-1.20;80.70
14022;DHT22;7086;48.116;11.580;2023-02-28T04:48:59;1.60;82.30
14022;DHT22;7086;48.116;11.580;2023-02-28T04:51:26;-1.20;81.40
14022;DHT22;7086;48.116;11.580;2023-02-28T04:53:54;-0.30;81.40
14022;DHT22;7086;48.116;11.580;2023-02-28T04:56:22;-0.70;82.10
14022;DHT22;7086;48.116;11.580;2023-02-28T04:58:51;1.40;83.40
14022;DHT22;7086;48.116;11.580;2023-02-28T05:01:22;-0.40;82.20
14022;DHT22;7086;48.116;11.580;2023-02-28T05:03:54;-0.70;82.80
14022;DHT22;7086;48.116;11.580;2023-02-28T05:06:26;-0.20;83.10
14022;DHT22;7086;48.116;11.580;2023-02-28T05:09:03;-1.00;82.20
14022;DHT22;7086;48.116;11.580;2023-02-28T05:11:33;0.50;82.20
14022;DHT22;7086;48.116;11.580;2023-02-28T05:14:11;-1.70;81.70
14022;DHT22;7086;48.116;11.580;2023-02-28T05:16:42;-0.60;82.40
14022;DHT22;7086;48.116;11.580;2023-02-28T05:19:11;-0.90;82.20
14022;DHT22;7086;48.116;11.580;2023-02-28T05:21:49;0.50;81.30
14022;DHT22;7086;48.116;11.580;2023-02-28T05:24:22;-0.80;82.40
14022;DHT22;7086;48.116;11.580;2023-02-28T05:26:53;-0.80;82.20
14022;DHT22;7086;48.116;11.580;2023-02-28T05:32:24;1.40;84.00
14022;DHT22;7086;48.116;11.580;2023-02-28T05:34:53;-0.70;82.30
14022;DHT22;7086;48.116;11.580;2023-02-28T05:37:21;-0.70;82.60
14022;DHT22;7086;48.116;11.580;2023-02-28T05:39:49;-0.60;82.40
14022;DHT22;7086;48.116;11.580;2023-02-28T05:42:16;-0.50;82.70
14022;DHT22;7086;48.116;11.580;2023-02-28T05:44:44;-0.50;82.70
14022;DHT22;7086;48.116;11.580;2023-02-28T05:47:14;-0.50;82.90
14022;DHT22;7086;48.116;11.580;2023-02-28T05:49:42;-0.50;82.70
14022;DHT22;7086;48.116;11.580;2023-02-28T05:52:10;-0.50;82.90
14022;DHT22;7086;48.116;11.580;2023-02-28T05:54:38;-0.40;82.70
14022;DHT22;7086;48.116;11.580;2023-02-28T05:57:06;2.30;84.10
14022;DHT22;7086;48.116;11.580;2023-02-28T05:59:35;2.00;84.00
14022;DHT22;7086;48.116;11.580;2023-02-28T06:02:06;-0.30;82.70
14022;DHT22;7086;48.116;11.580;2023-02-28T06:04:44;-0.30;82.80
14022;DHT22;7086;48.116;11.580;2023-02-28T06:07:12;-0.20;82.70
14022;DHT22;7086;48.116;11.580;2023-02-28T06:09:39;-0.20;82.10
14022;DHT22;7086;48.116;11.580;2023-02-28T06:12:07;-0.10;82.10
14022;DHT22;7086;48.116;11.580;2023-02-28T06:14:36;-0.20;82.00
14022;DHT22;7086;48.116;11.580;2023-02-28T06:17:09;0.30;82.20
14022;DHT22;7086;48.116;11.580;2023-02-28T06:19:37;0.70;82.40
14022;DHT22;7086;48.116;11.580;2023-02-28T06:22:21;2.00;83.20
14022;DHT22;7086;48.116;11.580;2023-02-28T06:24:50;-0.10;81.90
14022;DHT22;7086;48.116;11.580;2023-02-28T06:27:23;1.70;82.50
14022;DHT22;7086;48.116;11.580;2023-02-28T06:29:54;0.00;81.40
14022;DHT22;7086;48.116;11.580;2023-02-28T06:32:22;2.90;83.70
14022;DHT22;7086;48.116;11.580;2023-02-28T06:35:01;0.10;81.60
14022;DHT22;7086;48.116;11.580;2023-02-28T06:38:01;0.10;81.80
14022;DHT22;7086;48.116;11.580;2023-02-28T06:40:30;0.10;81.80
14022;DHT22;7086;48.116;11.580;2023-02-28T06:43:12;-0.70;81.10
14022;DHT22;7086;48.116;11.580;2023-02-28T06:45:56;0.10;80.80
14022;DHT22;7086;48.116;11.580;2023-02-28T06:48:40;0.10;81.60
14022;DHT22;7086;48.116;11.580;2023-02-28T06:51:23;0.10;81.40
14022;DHT22;7086;48.116;11.580;2023-02-28T06:57:54;0.10;81.80
14022;DHT22;7086;48.116;11.580;2023-02-28T07:00:25;-1.40;81.00
14022;DHT22;7086;48.116;11.580;2023-02-28T07:03:07;0.20;81.90
14022;DHT22;7086;48.116;11.580;2023-02-28T07:05:37;0.20;81.00
14022;DHT22;7086;48.116;11.580;2023-02-28T07:08:19;0.30;81.00
14022;DHT22;7086;48.116;11.580;2023-02-28T07:13:38;0.30;80.80
14022;DHT22;7086;48.116;11.580;2023-02-28T07:16:09;0.40;81.30
14022;DHT22;7086;48.116;11.580;2023-02-28T07:18:55;0.40;80.80
14022;DHT22;7086;48.116;11.580;2023-02-28T07:21:44;0.40;81.00
14022;DHT22;7086;48.116;11.580;2023-02-28T07:24:25;0.40;80.40
14022;DHT22;7086;48.116;11.580;2023-02-28T07:27:07;0.40;80.80
14022;DHT22;7086;48.116;11.580;2023-02-28T07:29:53;0.40;80.50
14022;DHT22;7086;48.116;11.580;2023-02-28T07:32:27;0.50;80.70
14022;DHT22;7086;48.116;11.580;2023-02-28T07:35:09;0.50;80.80
14022;DHT22;7086;48.116;11.580;2023-02-28T07:37:50;3.00;82.00
14022;DHT22;7086;48.116;11.580;2023-02-28T07:40:23;0.50;80.50
14022;DHT22;7086;48.116;11.580;2023-02-28T07:43:05;0.50;80.70
14022;DHT22;7086;48.116;11.580;2023-02-28T07:45:49;1.20;81.00
14022;DHT22;7086;48.116;11.580;2023-02-28T07:48:19;1.40;81.20
14022;DHT22;7086;48.116;11.580;2023-02-28T07:50:54;0.60;80.40
14022;DHT22;7086;48.116;11.580;2023-02-28T07:53:23;0.60;80.90
14022;DHT22;7086;48.116;11.580;2023-02-28T07:56:05;0.50;80.80
14022;DHT22;7086;48.116;11.580;2023-02-28T07:58:36;0.60;80.70
14022;DHT22;7086;48.116;11.580;2023-02-28T08:04:18;0.70;80.50
14022;DHT22;7086;48.116;11.580;2023-02-28T08:06:59;0.70;80.80
14022;DHT22;7086;48.116;11.580;2023-02-28T08:09:30;1.10;81.20
14022;DHT22;7086;48.116;11.580;2023-02-28T08:11:59;3.10;82.00
14022;DHT22;7086;48.116;11.580;2023-02-28T08:14:40;0.90;80.20
14022;DHT22;7086;48.116;11.580;2023-02-28T08:20:55;0.80;80.00
14022;DHT22;7086;48.116;11.580;2023-02-28T08:23:37;0.80;80.10
14022;DHT22;7086;48.116;11.580;2023-02-28T08:26:19;0.90;80.40
14022;DHT22;7086;48.116;11.580;2023-02-28T08:29:01;0.90;80.50
14022;DHT22;7086;48.116;11.580;2023-02-28T08:31:42;0.90;80.60
14022;DHT22;7086;48.116;11.580;2023-02-28T08:34:25;1.00;80.30
14022;DHT22;7086;48.116;11.580;2023-02-28T08:37:34;1.00;80.20
14022;DHT22;7086;48.116;11.580;2023-02-28T08:42:45;1.20;79.80
14022;DHT22;7086;48.116;11.580;2023-02-28T08:45:26;1.20;79.10
14022;DHT22;7086;48.116;11.580;2023-02-28T08:48:08;1.20;79.50
14022;DHT22;7086;48.116;11.580;2023-02-28T08:51:00;1.10;79.00
14022;DHT22;7086;48.116;11.580;2023-02-28T08:53:45;1.20;80.00
14022;DHT22;7086;48.116;11.580;2023-02-28T08:56:27;1.30;79.60
14022;DHT22;7086;48.116;11.580;2023-02-28T08:58:57;3.80;81.30
14022;DHT22;7086;48.116;11.580;2023-02-28T09:01:38;1.30;79.40
14022;DHT22;7086;48.116;11.580;2023-02-28T09:04:20;2.80;80.70
14022;DHT22;7086;48.116;11.580;2023-02-28T09:06:48;1.30;79.60
14022;DHT22;7086;48.116;11.580;2023-02-28T09:12:34;1.70;80.40
14022;DHT22;7086;48.116;11.580;2023-02-28T09:15:15;1.40;80.10
14022;DHT22;7086;48.116;11.580;2023-02-28T09:17:57;1.50;79.30
14022;DHT22;7086;48.116;11.580;2023-02-28T09:20:26;1.40;79.30
14022;DHT22;7086;48.116;11.580;2023-02-28T09:23:09;1.40;79.00
14022;DHT22;7086;48.116;11.580;2023-02-28T09:32:33;1.60;79.10
14022;DHT22;7086;48.116;11.580;2023-02-28T09:35:02;1.60;78.90
14022;DHT22;7086;48.116;11.580;2023-02-28T09:37:46;1.60;78.40
14022;DHT22;7086;48.116;11.580;2023-02-28T09:40:30;1.70;79.30
14022;DHT22;7086;48.116;11.580;2023-02-28T09:43:00;1.00;78.50
14022;DHT22;7086;48.116;11.580;2023-02-28T09:46:04;1.70;78.40
14022;DHT22;7086;48.116;11.580;2023-02-28T10:07:03;1.90;79.10
14022;DHT22;7086;48.116;11.580;2023-02-28T10:09:54;1.90;79.80
14022;DHT22;7086;48.116;11.580;2023-02-28T10:12:43;2.00;78.00
14022;DHT22;7086;48.116;11.580;2023-02-28T10:15:32;1.90;78.30
14022;DHT22;7086;48.116;11.580;2023-02-28T10:18:30;4.60;79.60
14022;DHT22;7086;48.116;11.580;2023-02-28T10:21:28;2.10;77.80
14022;DHT22;7086;48.116;11.580;2023-02-28T15:01:43;6.20;67.40
14022;DHT22;7086;48.116;11.580;2023-02-28T15:04:26;6.10;67.70
14022;DHT22;7086;48.116;11.580;2023-02-28T15:07:12;6.10;68.00
14022;DHT22;7086;48.116;11.580;2023-02-28T15:10:10;6.00;67.70
14022;DHT22;7086;48.116;11.580;2023-02-28T15:12:56;6.00;67.90
14022;DHT22;7086;48.116;11.580;2023-02-28T15:16:06;6.00;68.10
14022;DHT22;7086;48.116;11.580;2023-02-28T23:07:57;3.80;74.60
14022;DHT22;7086;48.116;11.580;2023-02-28T23:10:53;3.80;74.10
14022;DHT22;7086;48.116;11.580;2023-02-28T23:16:33;3.70;74.00
14022;DHT22;7086;48.116;11.580;2023-02-28T23:22:34;3.70;74.10
14022;DHT22;7086;48.116;11.580;2023-02-28T23:25:39;3.70;73.40
14022;DHT22;7086;48.116;11.580;2023-02-28T23:28:23;3.70;74.80
14022;DHT22;7086;48.116;11.580;2023-02-28T23:31:11;3.70;74.20
14022;DHT22;7086;48.116;11.580;2023-02-28T23:34:15;3.60;74.60
14022;DHT22;7086;48.116;11.580;2023-02-28T23:44:37;3.80;75.00
14022;DHT22;7086;48.116;11.580;2023-02-28T23:47:30;3.70;74.20
14022;DHT22;7086;48.116;11.580;2023-02-28T23:53:44;3.70;74.30
14022;DHT22;7086;48.116;11.580;2023-02-28T23:56:14;2.90;74.20
14022;DHT22;7086;48.116;11.580;2023-02-28T23:58:45;3.70;74.80
